createdAt,value
2022-08-25T00:02:07.056Z,9.98
2022-08-25T00:04:35.537Z,10.02
2022-08-25T00:07:05.024Z,9.43
2022-08-25T00:09:33.659Z,10.75
2022-08-25T00:12:00.576Z,11.02
2022-08-25T00:14:31.435Z,10.85
2022-08-25T00:16:58.777Z,8.30
2022-08-25T00:19:28.421Z,12.18
2022-08-25T00:21:55.992Z,9.05
2022-08-25T00:24:23.161Z,11.20
2022-08-25T00:26:54.913Z,10.82
2022-08-25T00:29:23.045Z,9.00
2022-08-25T00:31:49.588Z,9.32
2022-08-25T00:34:19.498Z,10.20
2022-08-25T00:36:47.151Z,9.50
2022-08-25T00:39:13.961Z,9.45
2022-08-25T00:41:42.847Z,9.98
2022-08-25T00:44:12.457Z,8.60
2022-08-25T00:46:45.614Z,14.60
2022-08-25T00:49:29.317Z,12.55
2022-08-25T00:52:19.354Z,12.40
2022-08-25T00:55:01.900Z,11.50
2022-08-25T00:57:50.289Z,10.80
2022-08-25T01:00:31.422Z,12.43
2022-08-25T01:02:58.392Z,12.63
2022-08-25T01:05:26.672Z,12.18
2022-08-25T01:07:57.465Z,11.27
2022-08-25T01:10:26.305Z,13.35
2022-08-25T01:13:16.709Z,14.43
2022-08-25T01:15:44.270Z,12.52
2022-08-25T01:18:11.797Z,12.38
2022-08-25T01:20:38.431Z,12.95
2022-08-25T01:23:04.876Z,12.23
2022-08-25T01:25:47.593Z,12.55
2022-08-25T01:28:15.205Z,12.15
2022-08-25T01:30:41.690Z,12.02
2022-08-25T01:33:10.358Z,15.43
2022-08-25T01:35:37.449Z,10.90
2022-08-25T01:38:05.925Z,13.63
2022-08-25T01:40:33.044Z,12.35
2022-08-25T01:43:12.258Z,11.55
2022-08-25T01:45:41.492Z,11.82
2022-08-25T01:48:09.035Z,13.93
2022-08-25T01:50:35.846Z,12.15
2022-08-25T01:53:17.659Z,12.57
2022-08-25T01:55:53.065Z,14.70
2022-08-25T01:58:23.123Z,16.48
2022-08-25T02:00:51.508Z,12.88
2022-08-25T02:03:21.103Z,13.00
2022-08-25T02:05:48.197Z,15.05
2022-08-25T02:08:15.350Z,15.85
2022-08-25T02:10:41.717Z,10.35
2022-08-25T02:13:09.032Z,15.80
2022-08-25T02:15:42.243Z,14.48
2022-08-25T02:18:09.174Z,13.90
2022-08-25T02:20:35.586Z,13.98
2022-08-25T02:23:02.000Z,14.63
2022-08-25T02:25:28.649Z,18.92
2022-08-25T02:27:55.104Z,16.88
2022-08-25T02:30:21.681Z,15.60
2022-08-25T02:32:48.094Z,15.63
2022-08-25T02:35:14.861Z,14.73
2022-08-25T02:37:41.306Z,19.60
2022-08-25T02:40:08.818Z,16.85
2022-08-25T02:42:35.572Z,17.73
2022-08-25T02:45:02.095Z,14.20
2022-08-25T02:47:29.390Z,18.40
2022-08-25T02:49:55.860Z,16.35
2022-08-25T02:52:22.304Z,14.88
2022-08-25T02:54:48.726Z,16.83
2022-08-25T02:57:15.817Z,20.35
2022-08-25T02:59:42.273Z,21.27
2022-08-25T03:02:08.685Z,16.42
2022-08-25T03:04:35.234Z,18.50
2022-08-25T03:07:01.741Z,20.40
2022-08-25T03:09:28.147Z,18.77
2022-08-25T03:11:54.566Z,19.05
2022-08-25T03:14:20.954Z,18.55
2022-08-25T03:16:47.396Z,16.35
2022-08-25T03:19:14.315Z,16.20
2022-08-25T03:21:40.818Z,12.75
2022-08-25T03:24:07.437Z,15.38
2022-08-25T03:26:52.698Z,16.48
2022-08-25T03:29:26.511Z,14.95
2022-08-25T03:31:58.276Z,17.95
2022-08-25T03:34:25.824Z,15.25
2022-08-25T03:36:52.977Z,17.25
2022-08-25T03:39:22.261Z,16.92
2022-08-25T03:41:49.471Z,15.07
2022-08-25T03:44:16.997Z,15.68
2022-08-25T03:46:46.692Z,15.95
2022-08-25T03:49:16.810Z,18.73
2022-08-25T03:51:49.169Z,13.73
2022-08-25T03:54:18.122Z,16.63
2022-08-25T03:56:45.428Z,15.73
2022-08-25T03:59:12.557Z,15.25
2022-08-25T04:01:41.386Z,16.73
2022-08-25T04:04:09.859Z,12.32
2022-08-25T04:06:36.459Z,18.38
2022-08-25T04:09:03.020Z,15.30
2022-08-25T04:11:29.629Z,11.73
2022-08-25T04:13:58.034Z,12.38
2022-08-25T04:16:27.744Z,16.02
2022-08-25T04:18:56.043Z,15.10
2022-08-25T04:21:22.699Z,11.15
2022-08-25T04:23:51.470Z,11.50
2022-08-25T04:26:24.594Z,13.55
2022-08-25T04:28:51.047Z,13.40
2022-08-25T04:31:19.201Z,12.73
2022-08-25T04:33:47.959Z,12.10
2022-08-25T04:36:16.539Z,12.20
2022-08-25T04:38:44.421Z,9.77
2022-08-25T04:41:13.464Z,9.68
2022-08-25T04:43:41.662Z,13.48
2022-08-25T04:46:12.320Z,11.57
2022-08-25T04:48:42.715Z,16.17
2022-08-25T04:51:12.392Z,13.90
2022-08-25T04:53:39.498Z,11.10
2022-08-25T04:56:08.224Z,11.13
2022-08-25T04:58:35.769Z,13.45
2022-08-25T05:01:11.800Z,14.25
2022-08-25T05:03:38.764Z,12.98
2022-08-25T05:06:06.011Z,8.27
2022-08-25T05:08:35.017Z,8.93
2022-08-25T05:11:17.282Z,11.20
2022-08-25T05:13:51.291Z,9.82
2022-08-25T05:16:19.455Z,10.90
2022-08-25T05:18:46.231Z,8.70
2022-08-25T05:21:16.797Z,10.23
2022-08-25T05:23:44.133Z,9.48
2022-08-25T05:26:15.457Z,10.70
2022-08-25T05:28:46.685Z,7.45
2022-08-25T05:31:14.760Z,7.05
2022-08-25T05:33:42.433Z,9.02
2022-08-25T05:36:10.798Z,13.60
2022-08-25T05:38:37.810Z,10.65
2022-08-25T05:41:07.632Z,9.80
2022-08-25T05:43:34.096Z,15.60
2022-08-25T05:46:01.240Z,8.65
2022-08-25T05:48:28.109Z,7.75
2022-08-25T05:51:00.252Z,6.35
2022-08-25T05:53:28.653Z,10.80
2022-08-25T05:55:59.384Z,8.85
2022-08-25T05:58:28.228Z,12.75
2022-08-25T06:00:55.162Z,9.25
2022-08-25T06:03:21.675Z,8.02
2022-08-25T06:05:48.270Z,5.55
2022-08-25T06:08:15.943Z,8.00
2022-08-25T06:10:42.728Z,6.88
2022-08-25T06:13:09.126Z,5.63
2022-08-25T06:15:36.015Z,5.90
2022-08-25T06:18:03.432Z,5.75
2022-08-25T06:20:31.215Z,6.13
2022-08-25T06:22:58.925Z,5.47
2022-08-25T06:25:26.550Z,9.35
2022-08-25T06:27:54.021Z,10.15
2022-08-25T06:30:26.554Z,11.15
2022-08-25T06:32:55.331Z,10.73
2022-08-25T06:35:22.156Z,8.25
2022-08-25T06:37:48.593Z,5.43
2022-08-25T06:40:16.341Z,5.97
2022-08-25T06:42:43.127Z,6.32
2022-08-25T06:45:10.212Z,5.97
2022-08-25T06:47:36.650Z,6.63
2022-08-25T06:50:04.416Z,8.70
2022-08-25T06:52:31.605Z,7.68
2022-08-25T06:54:58.052Z,6.70
2022-08-25T06:57:24.768Z,6.40
2022-08-25T06:59:53.425Z,6.10
2022-08-25T07:02:22.240Z,5.28
2022-08-25T07:04:49.442Z,4.75
2022-08-25T07:07:15.844Z,5.53
2022-08-25T07:09:42.221Z,4.97
2022-08-25T07:12:08.754Z,4.50
2022-08-25T07:14:36.256Z,6.43
2022-08-25T07:17:03.325Z,4.65
2022-08-25T07:19:38.642Z,4.65
2022-08-25T07:22:07.476Z,4.18
2022-08-25T07:24:36.155Z,6.25
2022-08-25T07:27:02.752Z,6.20
2022-08-25T07:29:32.712Z,5.32
2022-08-25T07:32:03.803Z,6.07
2022-08-25T07:35:00.815Z,5.70
2022-08-25T07:37:48.173Z,7.15
2022-08-25T07:40:24.956Z,3.17
2022-08-25T07:42:53.913Z,3.35
2022-08-25T07:45:25.379Z,3.58
2022-08-25T07:47:53.716Z,3.75
2022-08-25T07:50:20.451Z,4.88
2022-08-25T07:52:52.212Z,6.35
2022-08-25T07:55:22.794Z,4.80
2022-08-25T07:57:52.774Z,5.10
2022-08-25T08:00:22.547Z,3.38
2022-08-25T08:02:51.142Z,5.32
2022-08-25T08:05:17.625Z,4.30
2022-08-25T08:07:44.428Z,3.55
2022-08-25T08:13:01.645Z,2.83
2022-08-25T08:15:29.957Z,3.55
2022-08-25T08:17:58.006Z,3.90
2022-08-25T08:20:25.079Z,3.47
2022-08-25T08:22:51.665Z,5.18
2022-08-25T08:25:21.441Z,4.00
2022-08-25T08:27:50.777Z,4.30
2022-08-25T08:30:21.677Z,3.30
2022-08-25T08:33:09.194Z,3.53
2022-08-25T08:35:36.289Z,4.10
2022-08-25T08:38:02.904Z,5.28
2022-08-25T08:40:31.743Z,3.13
2022-08-25T08:43:18.067Z,4.90
2022-08-25T08:45:51.890Z,3.90
2022-08-25T08:48:40.232Z,3.13
2022-08-25T08:51:15.347Z,3.95
2022-08-25T08:53:48.571Z,4.22
2022-08-25T08:56:30.716Z,3.97
2022-08-25T08:59:22.186Z,3.53
2022-08-25T09:02:00.203Z,5.00
2022-08-25T09:04:36.295Z,3.72
2022-08-25T09:07:06.873Z,4.05
2022-08-25T09:09:37.100Z,5.50
2022-08-25T09:12:34.279Z,3.00
2022-08-25T09:15:12.885Z,3.88
2022-08-25T09:17:56.316Z,5.68
2022-08-25T09:20:34.850Z,3.55
2022-08-25T09:23:28.900Z,5.72
2022-08-25T09:26:00.451Z,5.95
2022-08-25T09:28:38.821Z,3.67
2022-08-25T09:31:14.501Z,3.30
2022-08-25T09:33:41.089Z,3.35
2022-08-25T09:36:08.897Z,4.00
2022-08-25T09:38:36.027Z,4.85
2022-08-25T09:41:03.200Z,7.05
2022-08-25T09:43:36.756Z,3.80
2022-08-25T09:46:12.713Z,3.45
2022-08-25T09:48:43.344Z,5.53
2022-08-25T09:51:23.679Z,3.83
2022-08-25T09:54:13.693Z,5.70
2022-08-25T09:56:55.569Z,5.10
2022-08-25T09:59:35.727Z,6.10
2022-08-25T10:02:21.642Z,5.35
2022-08-25T10:04:48.175Z,5.65
2022-08-25T10:07:40.144Z,4.60
2022-08-25T10:10:22.259Z,3.05
2022-08-25T10:12:51.248Z,4.35
2022-08-25T10:15:29.857Z,2.92
2022-08-25T10:18:19.760Z,3.33
2022-08-25T10:21:10.509Z,4.90
2022-08-25T10:23:46.905Z,3.28
2022-08-25T10:26:26.379Z,4.80
2022-08-25T10:29:05.020Z,3.45
2022-08-25T10:31:49.327Z,3.42
2022-08-25T10:34:27.197Z,7.45
2022-08-25T10:37:35.460Z,3.08
2022-08-25T10:40:09.815Z,5.88
2022-08-25T10:43:07.109Z,3.60
2022-08-25T10:45:46.085Z,4.28
2022-08-25T10:48:30.520Z,4.07
2022-08-25T10:51:34.342Z,5.65
2022-08-25T10:54:00.698Z,3.90
2022-08-25T10:56:40.758Z,4.25
2022-08-25T10:59:10.372Z,3.38
2022-08-25T11:01:45.101Z,4.70
2022-08-25T11:04:20.681Z,3.92
2022-08-25T11:07:15.588Z,3.85
2022-08-25T11:09:47.957Z,2.85
2022-08-25T11:12:29.903Z,4.25
2022-08-25T11:15:04.209Z,3.90
2022-08-25T11:17:46.132Z,3.15
2022-08-25T11:20:26.992Z,3.17
2022-08-25T11:23:19.483Z,3.67
2022-08-25T11:25:52.001Z,4.45
2022-08-25T11:28:40.728Z,2.40
2022-08-25T11:31:09.433Z,3.88
2022-08-25T11:33:36.786Z,3.67
2022-08-25T11:36:15.520Z,5.75
2022-08-25T11:39:11.418Z,8.10
2022-08-25T11:41:42.521Z,3.63
2022-08-25T11:44:25.297Z,3.28
2022-08-25T11:47:19.107Z,5.75
2022-08-25T11:49:58.066Z,4.45
2022-08-25T11:52:34.706Z,4.28
2022-08-25T11:55:29.504Z,3.53
2022-08-25T11:58:31.474Z,3.80
2022-08-25T12:01:00.106Z,2.67
2022-08-25T12:03:32.533Z,2.75
2022-08-25T12:06:25.411Z,3.93
2022-08-25T12:09:00.866Z,4.53
2022-08-25T12:11:39.802Z,3.65
2022-08-25T12:14:28.495Z,3.72
2022-08-25T12:16:55.021Z,4.53
2022-08-25T12:19:28.606Z,2.25
2022-08-25T12:22:18.852Z,2.90
2022-08-25T12:24:56.064Z,2.67
2022-08-25T12:27:48.688Z,4.70
2022-08-25T12:30:43.515Z,2.73
2022-08-25T12:33:47.247Z,3.10
2022-08-25T12:36:36.206Z,2.78
2022-08-25T12:39:24.408Z,3.65
2022-08-25T12:44:48.587Z,4.18
2022-08-25T12:47:31.803Z,2.33
2022-08-25T12:50:39.537Z,3.13
2022-08-25T12:53:11.428Z,2.30
2022-08-25T12:55:41.983Z,4.25
2022-08-25T12:58:08.585Z,3.15
2022-08-25T13:01:00.374Z,2.72
2022-08-25T13:06:31.476Z,6.18
2022-08-25T13:08:57.777Z,3.50
2022-08-25T13:11:43.094Z,4.75
2022-08-25T13:14:35.002Z,4.50
2022-08-25T13:17:05.331Z,5.13
2022-08-25T13:19:35.304Z,6.80
2022-08-25T13:22:16.075Z,5.00
2022-08-25T13:24:44.662Z,3.92
2022-08-25T13:27:22.720Z,5.22
2022-08-25T13:29:58.920Z,3.95
2022-08-25T13:32:35.936Z,5.68
2022-08-25T13:35:21.220Z,4.43
2022-08-25T13:37:49.241Z,4.20
2022-08-25T13:40:24.700Z,3.70
2022-08-25T13:43:01.111Z,7.95
2022-08-25T13:45:41.022Z,6.30
2022-08-25T13:48:22.537Z,6.95
2022-08-25T13:50:52.210Z,6.50
2022-08-25T13:53:25.357Z,4.85
2022-08-25T13:55:57.031Z,6.35
2022-08-25T13:58:32.519Z,9.23
2022-08-25T14:01:47.716Z,7.50
2022-08-25T14:04:23.239Z,9.73
2022-08-25T14:07:07.276Z,9.20
2022-08-25T14:09:45.278Z,8.30
2022-08-25T14:12:46.377Z,6.97
2022-08-25T14:15:19.993Z,12.95
2022-08-25T14:18:07.736Z,6.68
2022-08-25T14:20:36.089Z,11.00
2022-08-25T14:23:16.244Z,12.95
2022-08-25T14:25:45.510Z,5.53
2022-08-25T14:28:23.812Z,7.18
2022-08-25T14:30:56.094Z,7.68
2022-08-25T14:33:27.972Z,10.35
2022-08-25T14:35:57.519Z,13.15
2022-08-25T14:38:24.698Z,8.43
2022-08-25T14:40:51.850Z,8.82
2022-08-25T14:43:18.294Z,12.40
2022-08-25T14:45:50.835Z,6.30
2022-08-25T14:48:29.149Z,13.05
2022-08-25T14:50:58.466Z,10.98
2022-08-25T14:53:27.199Z,10.32
2022-08-25T14:55:57.416Z,12.02
2022-08-25T14:58:26.853Z,11.68
2022-08-25T15:00:54.277Z,11.45
2022-08-25T15:03:30.379Z,12.52
2022-08-25T15:06:00.456Z,13.73
2022-08-25T15:08:47.008Z,8.05
2022-08-25T15:11:14.850Z,16.38
2022-08-25T15:13:44.647Z,20.05
2022-08-25T15:16:20.925Z,17.75
2022-08-25T15:18:47.509Z,9.82
2022-08-25T15:21:15.929Z,13.80
2022-08-25T15:23:44.507Z,21.15
2022-08-25T15:26:13.580Z,14.32
2022-08-25T15:28:43.083Z,13.40
2022-08-25T15:31:14.670Z,15.13
2022-08-25T15:33:41.495Z,19.10
2022-08-25T15:36:11.182Z,11.57
2022-08-25T15:38:43.850Z,17.20
2022-08-25T15:41:11.754Z,18.35
2022-08-25T15:43:38.607Z,15.43
2022-08-25T15:46:07.000Z,15.80
2022-08-25T15:48:33.788Z,17.05
2022-08-25T15:51:00.862Z,16.77
2022-08-25T15:53:29.567Z,14.07
2022-08-25T15:56:00.585Z,21.55
2022-08-25T15:58:34.898Z,21.50
2022-08-25T16:01:01.824Z,18.45
2022-08-25T16:03:28.384Z,12.90
2022-08-25T16:05:55.111Z,21.13
2022-08-25T16:08:21.605Z,21.08
2022-08-25T16:10:48.000Z,18.45
2022-08-25T16:13:16.201Z,14.68
2022-08-25T16:15:52.938Z,24.20
2022-08-25T16:18:22.098Z,23.75
2022-08-25T16:20:48.567Z,21.92
2022-08-25T16:23:17.365Z,19.17
2022-08-25T16:25:46.365Z,25.10
2022-08-25T16:28:15.254Z,15.85
2022-08-25T16:30:50.238Z,25.70
2022-08-25T16:33:20.397Z,20.50
2022-08-25T16:35:47.519Z,19.13
2022-08-25T16:38:15.876Z,22.58
2022-08-25T16:40:43.161Z,28.75
2022-08-25T16:43:10.101Z,21.70
2022-08-25T16:45:36.838Z,17.88
2022-08-25T16:48:05.679Z,18.35
2022-08-25T16:50:32.580Z,21.10
2022-08-25T16:53:19.937Z,15.75
2022-08-25T16:58:33.036Z,23.92
2022-08-25T17:01:10.084Z,16.45
2022-08-25T17:03:37.502Z,21.10
2022-08-25T17:06:04.565Z,15.90
2022-08-25T17:08:32.102Z,22.25
2022-08-25T17:11:08.600Z,16.20
2022-08-25T17:13:36.966Z,24.05
2022-08-25T17:16:03.767Z,13.77
2022-08-25T17:18:30.428Z,18.98
2022-08-25T17:21:06.213Z,13.23
2022-08-25T17:23:33.672Z,13.55
2022-08-25T17:26:00.588Z,15.88
2022-08-25T17:28:28.343Z,17.67
2022-08-25T17:30:55.138Z,25.48
2022-08-25T17:33:23.842Z,22.05
2022-08-25T17:35:53.232Z,26.23
2022-08-25T17:38:25.754Z,14.35
2022-08-25T17:40:54.990Z,14.48
2022-08-25T17:43:23.968Z,11.80
2022-08-25T17:45:51.575Z,14.77
2022-08-25T17:48:18.453Z,13.65
2022-08-25T17:50:46.179Z,18.92
2022-08-25T17:53:13.513Z,15.82
2022-08-25T17:55:43.513Z,11.30
2022-08-25T17:58:12.223Z,14.55
2022-08-25T18:00:42.892Z,21.15
2022-08-25T18:03:10.546Z,20.90
2022-08-25T18:05:38.325Z,18.02
2022-08-25T18:08:10.345Z,24.10
2022-08-25T18:10:37.309Z,16.08
2022-08-25T18:13:03.750Z,17.17
2022-08-25T18:15:30.845Z,18.55
2022-08-25T18:17:57.282Z,15.43
2022-08-25T18:20:24.346Z,20.33
2022-08-25T18:22:50.783Z,13.30
2022-08-25T18:25:17.153Z,15.75
2022-08-25T18:27:43.598Z,18.45
2022-08-25T18:30:10.498Z,12.85
2022-08-25T18:32:36.885Z,19.85
2022-08-25T18:35:06.937Z,19.25
2022-08-25T18:37:51.921Z,12.38
2022-08-25T18:40:24.171Z,16.35
2022-08-25T18:42:59.503Z,16.55
2022-08-25T18:45:32.306Z,11.02
2022-08-25T18:48:00.588Z,12.68
2022-08-25T18:50:31.317Z,12.43
2022-08-25T18:52:58.481Z,16.38
2022-08-25T18:55:25.325Z,10.20
2022-08-25T18:57:51.753Z,12.35
2022-08-25T19:00:20.710Z,9.00
2022-08-25T19:02:49.578Z,11.93
2022-08-25T19:05:17.391Z,11.02
2022-08-25T19:07:45.575Z,10.93
2022-08-25T19:10:19.195Z,8.57
2022-08-25T19:12:45.960Z,14.15
2022-08-25T19:15:12.782Z,13.70
2022-08-25T19:17:39.804Z,14.20
2022-08-25T19:20:11.261Z,14.75
2022-08-25T19:22:41.917Z,12.55
2022-08-25T19:25:09.514Z,16.05
2022-08-25T19:27:36.143Z,20.77
2022-08-25T19:30:06.918Z,19.17
2022-08-25T19:32:33.486Z,14.63
2022-08-25T19:34:59.914Z,11.75
2022-08-25T19:37:28.072Z,13.00
2022-08-25T19:39:55.383Z,11.40
2022-08-25T19:42:37.345Z,13.85
2022-08-25T19:45:07.423Z,11.82
2022-08-25T19:47:34.349Z,11.60
2022-08-25T19:50:00.869Z,13.38
2022-08-25T19:52:27.818Z,12.10
2022-08-25T19:54:55.571Z,11.43
2022-08-25T19:57:28.131Z,10.57
2022-08-25T20:00:16.001Z,8.25
2022-08-25T20:02:43.264Z,9.25
2022-08-25T20:05:11.113Z,9.98
2022-08-25T20:07:37.701Z,7.53
2022-08-25T20:10:06.546Z,8.55
2022-08-25T20:12:33.486Z,10.10
2022-08-25T20:15:01.127Z,7.40
2022-08-25T20:17:28.501Z,10.05
2022-08-25T20:19:58.942Z,6.53
2022-08-25T20:22:27.716Z,8.68
2022-08-25T20:24:59.516Z,8.85
2022-08-25T20:27:38.328Z,4.88
2022-08-25T20:30:10.055Z,6.82
2022-08-25T20:32:36.789Z,6.22
2022-08-25T20:35:06.224Z,2.10
2022-08-25T20:37:36.194Z,4.95
2022-08-25T20:40:03.879Z,3.83
2022-08-25T20:42:30.371Z,7.22
2022-08-25T20:44:57.431Z,8.95
2022-08-25T20:47:24.052Z,3.80
2022-08-25T20:49:50.607Z,5.30
2022-08-25T20:52:19.468Z,6.93
2022-08-25T20:54:49.489Z,3.67
2022-08-25T20:57:19.412Z,2.55
2022-08-25T20:59:53.714Z,3.63
2022-08-25T21:02:20.383Z,7.10
2022-08-25T21:04:49.964Z,3.75
2022-08-25T21:07:17.016Z,8.18
2022-08-25T21:09:43.440Z,5.75
2022-08-25T21:12:09.821Z,3.55
2022-08-25T21:14:38.483Z,6.43
2022-08-25T21:17:05.178Z,4.55
2022-08-25T21:19:31.771Z,6.78
2022-08-25T21:22:00.125Z,8.48
2022-08-25T21:24:28.126Z,5.53
2022-08-25T21:26:56.894Z,4.10
2022-08-25T21:29:25.289Z,4.78
2022-08-25T21:31:52.091Z,6.80
2022-08-25T21:34:19.466Z,3.33
2022-08-25T21:36:47.739Z,3.60
2022-08-25T21:39:14.788Z,5.93
2022-08-25T21:41:44.061Z,8.32
2022-08-25T21:44:12.774Z,3.47
2022-08-25T21:46:41.021Z,3.35
2022-08-25T21:49:08.524Z,4.93
2022-08-25T21:51:40.548Z,4.68
2022-08-25T21:54:11.080Z,3.45
2022-08-25T21:56:39.211Z,2.88
2022-08-25T21:59:12.046Z,3.03
2022-08-25T22:01:39.627Z,5.30
2022-08-25T22:04:07.261Z,3.45
2022-08-25T22:06:34.952Z,3.28
2022-08-25T22:09:01.861Z,3.53
2022-08-25T22:11:28.460Z,3.47
2022-08-25T22:14:01.321Z,3.35
2022-08-25T22:16:29.540Z,4.55
2022-08-25T22:18:56.417Z,6.07
2022-08-25T22:21:23.212Z,5.65
2022-08-25T22:23:50.708Z,5.28
2022-08-25T22:26:18.466Z,5.85
2022-08-25T22:28:48.691Z,4.07
2022-08-25T22:31:20.581Z,3.70
2022-08-25T22:33:48.512Z,6.05
2022-08-25T22:36:20.444Z,6.07
2022-08-25T22:38:47.013Z,8.00
2022-08-25T22:41:19.134Z,3.90
2022-08-25T22:43:49.376Z,3.90
2022-08-25T22:46:19.657Z,5.15
2022-08-25T22:48:46.292Z,2.38
2022-08-25T22:51:18.746Z,4.13
2022-08-25T22:53:47.152Z,6.35
2022-08-25T22:56:17.199Z,8.65
2022-08-25T22:58:44.107Z,1.27
2022-08-25T23:01:19.841Z,4.50
2022-08-25T23:03:47.682Z,4.25
2022-08-25T23:06:24.613Z,4.82
2022-08-25T23:08:53.541Z,8.13
2022-08-25T23:11:21.636Z,5.80
2022-08-25T23:13:48.440Z,4.22
2022-08-25T23:16:15.638Z,9.40
2022-08-25T23:18:44.637Z,3.55
2022-08-25T23:21:38.105Z,3.33
2022-08-25T23:24:08.187Z,4.95
2022-08-25T23:26:34.633Z,1.27
2022-08-25T23:29:01.125Z,6.95
2022-08-25T23:31:30.039Z,4.32
2022-08-25T23:33:57.470Z,4.35
2022-08-25T23:36:24.113Z,4.00
2022-08-25T23:38:51.543Z,5.85
2022-08-25T23:41:20.893Z,3.03
2022-08-25T23:43:49.970Z,5.90
2022-08-25T23:46:18.727Z,1.02
2022-08-25T23:48:47.648Z,3.85
2022-08-25T23:51:22.595Z,4.82
2022-08-25T23:53:49.194Z,2.78
2022-08-25T23:56:15.699Z,5.03
2022-08-25T23:58:43.446Z,2.88
